sensor_id;sensor_type;location;lat;lon;timestamp;P1;durP1;ratioP1;P2;durP2;ratioP2
20161;SDS011;51382;53.180;15.414;2023-02-28T00:13:52;85.80;;;17.30;;
20161;SDS011;51382;53.180;15.414;2023-02-28T00:29:04;138.60;;;34.30;;
20161;SDS011;51382;53.180;15.414;2023-02-28T00:44:15;126.00;;;27.30;;
20161;SDS011;51382;53.180;15.414;2023-02-28T00:59:26;105.50;;;40.50;;
20161;SDS011;51382;53.180;15.414;2023-02-28T01:14:37;94.60;;;33.00;;
20161;SDS011;51382;53.180;15.414;2023-02-28T01:29:50;112.50;;;37.20;;
20161;SDS011;51382;53.180;15.414;2023-02-28T01:45:08;99.40;;;30.60;;
20161;SDS011;51382;53.180;15.414;2023-02-28T02:00:28;93.60;;;23.10;;
20161;SDS011;51382;53.180;15.414;2023-02-28T02:15:44;113.20;;;24.70;;
20161;SDS011;51382;53.180;15.414;2023-02-28T02:46:55;122.90;;;28.20;;
20161;SDS011;51382;53.180;15.414;2023-02-28T03:02:12;55.10;;;12.20;;
20161;SDS011;51382;53.180;15.414;2023-02-28T03:33:13;104.30;;;21.20;;
20161;SDS011;51382;53.180;15.414;2023-02-28T03:48:31;70.60;;;13.80;;
20161;SDS011;51382;53.180;15.414;2023-02-28T04:03:42;62.80;;;13.60;;
20161;SDS011;51382;53.180;15.414;2023-02-28T04:18:54;68.50;;;12.30;;
20161;SDS011;51382;53.180;15.414;2023-02-28T04:34:11;54.30;;;12.20;;
20161;SDS011;51382;53.180;15.414;2023-02-28T04:49:22;54.50;;;11.90;;
20161;SDS011;51382;53.180;15.414;2023-02-28T05:04:29;69.60;;;15.70;;
20161;SDS011;51382;53.180;15.414;2023-02-28T05:19:43;62.60;;;13.90;;
20161;SDS011;51382;53.180;15.414;2023-02-28T05:34:55;53.60;;;11.60;;
20161;SDS011;51382;53.180;15.414;2023-02-28T05:50:01;69.50;;;17.50;;
20161;SDS011;51382;53.180;15.414;2023-02-28T06:05:14;134.20;;;22.90;;
20161;SDS011;51382;53.180;15.414;2023-02-28T06:20:21;97.00;;;16.30;;
20161;SDS011;51382;53.180;15.414;2023-02-28T06:35:33;117.40;;;17.60;;
20161;SDS011;51382;53.180;15.414;2023-02-28T06:50:39;136.30;;;19.80;;
20161;SDS011;51382;53.180;15.414;2023-02-28T07:05:48;70.60;;;14.50;;
20161;SDS011;51382;53.180;15.414;2023-02-28T07:21:03;107.70;;;16.90;;
20161;SDS011;51382;53.180;15.414;2023-02-28T07:36:16;54.10;;;11.90;;
20161;SDS011;51382;53.180;15.414;2023-02-28T07:51:29;73.50;;;16.30;;
20161;SDS011;51382;53.180;15.414;2023-02-28T08:06:41;98.40;;;21.90;;
20161;SDS011;51382;53.180;15.414;2023-02-28T08:21:52;70.50;;;20.30;;
20161;SDS011;51382;53.180;15.414;2023-02-28T08:37:03;81.20;;;18.80;;
20161;SDS011;51382;53.180;15.414;2023-02-28T08:52:14;86.40;;;21.50;;
20161;SDS011;51382;53.180;15.414;2023-02-28T09:07:21;66.90;;;19.70;;
20161;SDS011;51382;53.180;15.414;2023-02-28T09:22:32;56.60;;;12.40;;
20161;SDS011;51382;53.180;15.414;2023-02-28T09:37:43;49.80;;;15.30;;
20161;SDS011;51382;53.180;15.414;2023-02-28T09:52:56;53.70;;;13.90;;
20161;SDS011;51382;53.180;15.414;2023-02-28T10:08:13;43.40;;;8.20;;
20161;SDS011;51382;53.180;15.414;2023-02-28T10:23:28;48.00;;;9.00;;
20161;SDS011;51382;53.180;15.414;2023-02-28T10:38:43;42.90;;;6.90;;
20161;SDS011;51382;53.180;15.414;2023-02-28T10:53:56;40.60;;;6.80;;
20161;SDS011;51382;53.180;15.414;2023-02-28T11:09:18;52.90;;;12.70;;
20161;SDS011;51382;53.180;15.414;2023-02-28T11:24:34;31.10;;;7.00;;
20161;SDS011;51382;53.180;15.414;2023-02-28T11:39:47;43.60;;;9.90;;
20161;SDS011;51382;53.180;15.414;2023-02-28T11:55:11;42.30;;;7.90;;
20161;SDS011;51382;53.180;15.414;2023-02-28T12:10:26;58.70;;;11.00;;
20161;SDS011;51382;53.180;15.414;2023-02-28T12:25:49;57.30;;;7.80;;
20161;SDS011;51382;53.180;15.414;2023-02-28T12:41:05;29.40;;;6.20;;
20161;SDS011;51382;53.180;15.414;2023-02-28T12:56:24;42.80;;;6.70;;
20161;SDS011;51382;53.180;15.414;2023-02-28T13:11:42;36.20;;;5.50;;
20161;SDS011;51382;53.180;15.414;2023-02-28T13:42:38;41.20;;;6.50;;
20161;SDS011;51382;53.180;15.414;2023-02-28T13:58:15;34.50;;;5.30;;
20161;SDS011;51382;53.180;15.414;2023-02-28T14:13:48;34.50;;;4.80;;
20161;SDS011;51382;53.180;15.414;2023-02-28T14:29:18;41.20;;;5.50;;
20161;SDS011;51382;53.180;15.414;2023-02-28T14:44:32;33.40;;;5.00;;
20161;SDS011;51382;53.180;15.414;2023-02-28T14:59:44;43.00;;;5.50;;
20161;SDS011;51382;53.180;15.414;2023-02-28T15:14:55;41.60;;;5.90;;
20161;SDS011;51382;53.180;15.414;2023-02-28T15:30:13;39.50;;;5.80;;
20161;SDS011;51382;53.180;15.414;2023-02-28T15:45:33;54.40;;;7.20;;
20161;SDS011;51382;53.180;15.414;2023-02-28T16:01:04;37.30;;;7.30;;
20161;SDS011;51382;53.180;15.414;2023-02-28T16:16:19;58.00;;;9.40;;
20161;SDS011;51382;53.180;15.414;2023-02-28T16:31:31;123.80;;;31.40;;
20161;SDS011;51382;53.180;15.414;2023-02-28T16:46:44;85.90;;;21.60;;
20161;SDS011;51382;53.180;15.414;2023-02-28T17:01:56;117.40;;;12.90;;
20161;SDS011;51382;53.180;15.414;2023-02-28T17:17:10;83.40;;;17.10;;
20161;SDS011;51382;53.180;15.414;2023-02-28T17:32:27;60.90;;;8.30;;
20161;SDS011;51382;53.180;15.414;2023-02-28T17:47:39;71.00;;;11.60;;
20161;SDS011;51382;53.180;15.414;2023-02-28T18:02:50;92.10;;;22.00;;
20161;SDS011;51382;53.180;15.414;2023-02-28T18:18:04;86.70;;;23.50;;
20161;SDS011;51382;53.180;15.414;2023-02-28T18:33:17;69.80;;;12.90;;
20161;SDS011;51382;53.180;15.414;2023-02-28T18:48:28;62.20;;;13.10;;
20161;SDS011;51382;53.180;15.414;2023-02-28T19:03:36;68.70;;;11.20;;
20161;SDS011;51382;53.180;15.414;2023-02-28T19:18:43;56.60;;;7.60;;
20161;SDS011;51382;53.180;15.414;2023-02-28T19:33:55;64.30;;;7.10;;
20161;SDS011;51382;53.180;15.414;2023-02-28T19:49:06;57.70;;;10.80;;
20161;SDS011;51382;53.180;15.414;2023-02-28T20:04:17;99.40;;;24.50;;
20161;SDS011;51382;53.180;15.414;2023-02-28T20:19:29;127.10;;;35.30;;
20161;SDS011;51382;53.180;15.414;2023-02-28T20:34:41;226.20;;;66.40;;
20161;SDS011;51382;53.180;15.414;2023-02-28T20:49:52;196.10;;;62.90;;
20161;SDS011;51382;53.180;15.414;2023-02-28T21:05:04;176.00;;;61.90;;
20161;SDS011;51382;53.180;15.414;2023-02-28T21:20:16;204.80;;;62.30;;
20161;SDS011;51382;53.180;15.414;2023-02-28T21:35:31;117.20;;;35.40;;
20161;SDS011;51382;53.180;15.414;2023-02-28T21:50:54;177.10;;;60.50;;
20161;SDS011;51382;53.180;15.414;2023-02-28T22:06:12;185.80;;;59.10;;
20161;SDS011;51382;53.180;15.414;2023-02-28T22:21:24;191.30;;;68.40;;
20161;SDS011;51382;53.180;15.414;2023-02-28T22:36:35;212.60;;;82.90;;
20161;SDS011;51382;53.180;15.414;2023-02-28T22:51:47;222.20;;;84.30;;
20161;SDS011;51382;53.180;15.414;2023-02-28T23:06:58;210.60;;;80.20;;
20161;SDS011;51382;53.180;15.414;2023-02-28T23:22:09;134.30;;;47.00;;
20161;SDS011;51382;53.180;15.414;2023-02-28T23:37:21;109.00;;;32.60;;
20161;SDS011;51382;53.180;15.414;2023-02-28T23:52:32;109.00;;;33.60;;
